createdAt,value
2023-09-06T00:02:07.662Z,2.28
2023-09-06T00:04:35.083Z,2.15
2023-09-06T00:07:02.078Z,2.30
2023-09-06T00:09:31.092Z,2.40
2023-09-06T00:12:00.027Z,1.85
2023-09-06T00:14:30.548Z,2.20
2023-09-06T00:16:57.852Z,2.00
2023-09-06T00:19:25.521Z,2.50
2023-09-06T00:21:54.649Z,2.78
2023-09-06T00:24:24.009Z,2.70
2023-09-06T00:26:53.093Z,2.75
2023-09-06T00:29:19.896Z,2.60
2023-09-06T00:31:46.777Z,2.50
2023-09-06T00:34:15.650Z,2.30
2023-09-06T00:36:42.355Z,2.22
2023-09-06T00:39:10.490Z,2.38
2023-09-06T00:41:41.247Z,2.47
2023-09-06T00:44:09.470Z,2.80
2023-09-06T00:46:36.762Z,2.90
2023-09-06T00:49:03.909Z,2.53
2023-09-06T00:51:31.039Z,2.70
2023-09-06T00:54:01.615Z,2.75
2023-09-06T00:56:28.492Z,2.55
2023-09-06T00:58:55.210Z,2.38
2023-09-06T01:01:22.090Z,2.30
2023-09-06T01:03:51.314Z,2.50
2023-09-06T01:06:29.519Z,2.60
2023-09-06T01:08:58.956Z,2.58
2023-09-06T01:11:27.838Z,2.53
2023-09-06T01:13:57.106Z,2.35
2023-09-06T01:16:30.536Z,2.42
2023-09-06T01:19:02.829Z,2.30
2023-09-06T01:21:43.815Z,2.00
2023-09-06T01:24:11.904Z,2.30
2023-09-06T01:26:41.325Z,2.60
2023-09-06T01:29:08.127Z,2.50
2023-09-06T01:31:34.914Z,2.30
2023-09-06T01:34:01.730Z,2.30
2023-09-06T01:36:29.912Z,2.20
2023-09-06T01:38:56.642Z,2.42
2023-09-06T01:41:23.345Z,2.30
2023-09-06T01:43:55.070Z,2.40
2023-09-06T01:46:25.080Z,2.55
2023-09-06T01:48:52.243Z,2.80
2023-09-06T01:51:23.653Z,2.30
2023-09-06T01:53:50.512Z,2.47
2023-09-06T01:56:19.401Z,2.30
2023-09-06T01:58:48.703Z,2.40
2023-09-06T02:01:15.502Z,2.20
2023-09-06T02:03:42.458Z,2.30
2023-09-06T02:06:11.639Z,2.25
2023-09-06T02:08:40.882Z,2.60
2023-09-06T02:11:07.824Z,2.83
2023-09-06T02:13:34.674Z,2.90
2023-09-06T02:16:02.031Z,2.40
2023-09-06T02:18:29.200Z,2.50
2023-09-06T02:21:01.821Z,2.30
2023-09-06T02:25:58.510Z,2.25
2023-09-06T02:28:25.263Z,2.20
2023-09-06T02:30:54.491Z,2.42
2023-09-06T02:33:21.265Z,2.50
2023-09-06T02:35:50.601Z,2.67
2023-09-06T02:38:20.742Z,2.70
2023-09-06T02:40:47.501Z,3.13
2023-09-06T02:43:14.950Z,2.80
2023-09-06T02:45:50.906Z,2.72
2023-09-06T02:48:19.813Z,3.00
2023-09-06T02:50:49.094Z,2.60
2023-09-06T02:53:21.459Z,2.90
2023-09-06T02:58:26.893Z,2.75
2023-09-06T03:01:07.339Z,2.35
2023-09-06T03:03:34.687Z,2.40
2023-09-06T03:06:05.764Z,2.33
2023-09-06T03:08:33.466Z,2.30
2023-09-06T03:11:03.408Z,2.17
2023-09-06T03:13:30.264Z,2.53
2023-09-06T03:15:58.669Z,2.53
2023-09-06T03:18:29.548Z,2.50
2023-09-06T03:21:05.201Z,2.40
2023-09-06T03:23:34.937Z,2.40
2023-09-06T03:26:04.122Z,2.20
2023-09-06T03:28:31.110Z,2.30
2023-09-06T03:30:59.694Z,2.17
2023-09-06T03:33:27.941Z,2.30
2023-09-06T03:35:54.713Z,2.60
2023-09-06T03:38:26.396Z,2.50
2023-09-06T03:41:03.197Z,2.33
2023-09-06T03:43:31.909Z,2.70
2023-09-06T03:46:08.376Z,2.40
2023-09-06T03:48:35.821Z,2.60
2023-09-06T03:51:03.528Z,2.50
2023-09-06T03:53:30.604Z,2.10
2023-09-06T03:56:01.682Z,2.70
2023-09-06T03:58:31.487Z,2.20
2023-09-06T04:01:01.053Z,2.85
2023-09-06T04:03:28.170Z,2.83
2023-09-06T04:05:56.117Z,2.60
2023-09-06T04:08:30.637Z,2.70
2023-09-06T04:10:57.638Z,3.22
2023-09-06T04:13:24.414Z,3.30
2023-09-06T04:15:51.116Z,2.75
2023-09-06T04:18:20.231Z,2.40
2023-09-06T04:20:47.688Z,2.53
2023-09-06T04:23:17.622Z,2.38
2023-09-06T04:25:47.412Z,2.50
2023-09-06T04:28:17.895Z,2.08
2023-09-06T04:30:49.404Z,2.30
2023-09-06T04:33:16.943Z,2.20
2023-09-06T04:35:45.853Z,2.42
2023-09-06T04:38:15.497Z,2.17
2023-09-06T04:40:46.083Z,2.55
2023-09-06T04:43:18.035Z,2.60
2023-09-06T04:45:47.246Z,2.40
2023-09-06T04:48:20.589Z,2.38
2023-09-06T04:50:50.763Z,2.10
2023-09-06T04:53:20.024Z,1.90
2023-09-06T04:55:49.125Z,2.35
2023-09-06T04:58:16.251Z,2.85
2023-09-06T05:00:47.746Z,2.70
2023-09-06T05:03:18.703Z,2.65
2023-09-06T05:05:47.035Z,2.67
2023-09-06T05:08:14.248Z,2.50
2023-09-06T05:10:43.502Z,2.50
2023-09-06T05:13:13.028Z,2.40
2023-09-06T05:15:40.063Z,2.50
2023-09-06T05:18:09.040Z,2.70
2023-09-06T05:20:39.017Z,2.63
2023-09-06T05:23:13.450Z,2.38
2023-09-06T05:25:41.256Z,2.90
2023-09-06T05:28:12.051Z,2.53
2023-09-06T05:30:45.965Z,2.60
2023-09-06T05:33:16.507Z,2.20
2023-09-06T05:35:45.705Z,2.20
2023-09-06T05:38:12.469Z,2.35
2023-09-06T05:40:41.727Z,2.00
2023-09-06T05:43:08.496Z,2.20
2023-09-06T05:45:37.674Z,2.53
2023-09-06T05:48:07.239Z,2.40
2023-09-06T05:50:37.565Z,1.95
2023-09-06T05:53:04.468Z,2.55
2023-09-06T05:55:33.429Z,1.90
2023-09-06T05:58:00.131Z,2.05
2023-09-06T06:00:30.198Z,2.30
2023-09-06T06:03:00.540Z,2.10
2023-09-06T06:05:27.403Z,2.08
2023-09-06T06:07:58.826Z,2.25
2023-09-06T06:10:30.543Z,2.30
2023-09-06T06:12:57.382Z,5.60
2023-09-06T06:15:24.421Z,2.45
2023-09-06T06:17:51.186Z,2.30
2023-09-06T06:20:27.722Z,2.35
2023-09-06T06:22:58.226Z,2.30
2023-09-06T06:25:25.134Z,2.67
2023-09-06T06:27:53.394Z,2.30
2023-09-06T06:30:20.568Z,2.20
2023-09-06T06:32:49.933Z,2.17
2023-09-06T06:35:16.766Z,2.28
2023-09-06T06:37:43.507Z,2.13
2023-09-06T06:40:10.815Z,2.20
2023-09-06T06:42:40.491Z,2.17
2023-09-06T06:45:07.979Z,2.40
2023-09-06T06:47:35.589Z,2.53
2023-09-06T06:50:07.155Z,2.20
2023-09-06T06:52:45.336Z,1.80
2023-09-06T06:55:14.719Z,2.22
2023-09-06T06:57:41.439Z,2.00
2023-09-06T07:00:12.556Z,2.00
2023-09-06T07:02:39.803Z,1.92
2023-09-06T07:05:07.072Z,2.35
2023-09-06T07:07:36.059Z,2.20
2023-09-06T07:10:02.834Z,2.30
2023-09-06T07:12:31.703Z,2.22
2023-09-06T07:14:59.609Z,2.50
2023-09-06T07:17:26.655Z,2.35
2023-09-06T07:19:53.464Z,1.95
2023-09-06T07:22:21.015Z,2.33
2023-09-06T07:24:47.786Z,2.30
2023-09-06T07:27:14.526Z,2.20
2023-09-06T07:29:41.250Z,2.22
2023-09-06T07:32:08.432Z,2.42
2023-09-06T07:34:35.269Z,2.10
2023-09-06T07:37:01.982Z,2.17
2023-09-06T07:39:28.718Z,2.10
2023-09-06T07:41:56.864Z,2.33
2023-09-06T07:44:30.422Z,2.35
2023-09-06T07:46:57.495Z,2.70
2023-09-06T07:49:25.938Z,2.03
2023-09-06T07:51:57.146Z,2.30
2023-09-06T07:54:28.600Z,2.45
2023-09-06T07:56:58.011Z,2.60
2023-09-06T07:59:24.744Z,2.00
2023-09-06T08:01:54.860Z,2.55
2023-09-06T08:04:22.876Z,2.60
2023-09-06T08:06:49.789Z,2.40
2023-09-06T08:09:17.032Z,2.42
2023-09-06T08:11:46.353Z,2.22
2023-09-06T08:14:15.661Z,2.10
2023-09-06T08:16:44.820Z,2.75
2023-09-06T08:19:16.294Z,2.40
2023-09-06T08:21:48.031Z,2.45
2023-09-06T08:24:14.817Z,2.33
2023-09-06T08:26:43.933Z,2.30
2023-09-06T08:29:10.781Z,2.58
2023-09-06T08:31:37.776Z,2.53
2023-09-06T08:34:04.904Z,2.30
2023-09-06T08:36:34.159Z,2.88
2023-09-06T08:39:01.564Z,2.92
2023-09-06T08:41:32.492Z,3.25
2023-09-06T08:44:04.715Z,3.00
2023-09-06T08:46:42.697Z,3.40
2023-09-06T08:49:11.113Z,3.08
2023-09-06T08:51:41.419Z,2.47
2023-09-06T08:54:09.163Z,2.53
2023-09-06T08:56:36.550Z,2.67
2023-09-06T08:59:04.689Z,2.85
2023-09-06T09:01:31.816Z,2.40
2023-09-06T09:04:01.220Z,2.42
2023-09-06T09:06:30.656Z,2.40
2023-09-06T09:09:19.645Z,2.25
2023-09-06T09:11:51.194Z,2.83
2023-09-06T09:14:23.275Z,2.47
2023-09-06T09:16:58.121Z,2.60
2023-09-06T09:19:25.475Z,2.53
2023-09-06T09:21:58.025Z,2.58
2023-09-06T09:26:57.905Z,2.33
2023-09-06T09:29:27.803Z,2.47
2023-09-06T09:31:54.613Z,2.55
2023-09-06T09:34:22.381Z,2.67
2023-09-06T09:36:52.661Z,2.55
2023-09-06T09:39:20.375Z,3.00
2023-09-06T09:41:59.050Z,2.53
2023-09-06T09:44:27.037Z,2.55
2023-09-06T09:46:57.844Z,2.83
2023-09-06T09:49:28.738Z,2.60
2023-09-06T09:51:57.790Z,2.40
2023-09-06T09:54:28.069Z,2.55
2023-09-06T09:57:05.048Z,2.50
2023-09-06T09:59:33.720Z,2.60
2023-09-06T10:02:01.078Z,2.30
2023-09-06T10:04:30.903Z,3.22
2023-09-06T10:07:01.391Z,2.83
2023-09-06T10:09:31.226Z,2.60
2023-09-06T10:12:00.244Z,2.70
2023-09-06T10:14:30.341Z,2.55
2023-09-06T10:16:58.399Z,2.55
2023-09-06T10:19:32.841Z,3.05
2023-09-06T10:22:09.607Z,2.60
2023-09-06T10:24:37.128Z,3.10
2023-09-06T10:27:04.495Z,2.83
2023-09-06T10:29:34.365Z,2.60
2023-09-06T10:32:05.928Z,2.67
2023-09-06T10:34:35.218Z,2.53
2023-09-06T10:37:04.444Z,2.40
2023-09-06T10:39:32.187Z,2.72
2023-09-06T10:42:14.557Z,2.97
2023-09-06T10:45:00.198Z,3.30
2023-09-06T10:47:27.678Z,3.08
2023-09-06T10:50:24.250Z,2.85
2023-09-06T10:52:53.587Z,2.67
2023-09-06T10:55:25.413Z,2.60
2023-09-06T10:57:59.667Z,3.03
2023-09-06T11:00:32.132Z,2.50
2023-09-06T11:03:08.329Z,2.80
2023-09-06T11:05:38.628Z,2.90
2023-09-06T11:08:09.032Z,2.53
2023-09-06T11:10:37.082Z,2.80
2023-09-06T11:13:16.176Z,2.70
2023-09-06T11:15:43.396Z,2.83
2023-09-06T11:18:10.495Z,2.60
2023-09-06T11:20:38.620Z,2.92
2023-09-06T11:23:05.338Z,2.47
2023-09-06T11:25:33.183Z,2.90
2023-09-06T11:28:03.528Z,2.58
2023-09-06T11:30:33.380Z,2.53
2023-09-06T11:33:08.177Z,2.42
2023-09-06T11:35:42.513Z,2.65
2023-09-06T11:38:12.277Z,2.95
2023-09-06T11:40:40.049Z,2.63
2023-09-06T11:43:15.050Z,2.70
2023-09-06T11:45:47.312Z,2.65
2023-09-06T11:48:20.224Z,2.55
2023-09-06T11:50:51.352Z,3.40
2023-09-06T11:53:21.277Z,2.88
2023-09-06T11:55:50.650Z,4.32
2023-09-06T11:58:22.873Z,4.20
2023-09-06T12:00:52.107Z,3.40
2023-09-06T12:03:22.385Z,3.00
2023-09-06T12:05:51.573Z,3.22
2023-09-06T12:08:23.703Z,3.53
2023-09-06T12:10:55.745Z,3.50
2023-09-06T12:13:35.908Z,4.03
2023-09-06T12:16:03.842Z,2.85
2023-09-06T12:18:34.705Z,3.45
2023-09-06T12:21:01.950Z,3.40
2023-09-06T12:23:31.950Z,2.70
2023-09-06T12:26:00.041Z,3.20
2023-09-06T12:28:30.340Z,2.80
2023-09-06T12:31:16.726Z,2.80
2023-09-06T12:33:49.783Z,2.92
2023-09-06T12:36:19.777Z,3.03
2023-09-06T12:38:49.291Z,2.50
2023-09-06T12:41:16.214Z,3.00
2023-09-06T12:43:45.476Z,2.85
2023-09-06T12:46:13.269Z,3.60
2023-09-06T12:48:42.599Z,2.97
2023-09-06T12:51:09.938Z,2.88
2023-09-06T12:53:37.307Z,2.92
2023-09-06T12:56:04.536Z,2.83
2023-09-06T12:58:31.803Z,2.83
2023-09-06T13:01:00.498Z,2.58
2023-09-06T13:03:29.442Z,3.00
2023-09-06T13:06:02.423Z,2.67
2023-09-06T13:08:30.066Z,2.95
2023-09-06T13:10:59.385Z,2.80
2023-09-06T13:13:28.608Z,2.80
2023-09-06T13:15:55.389Z,2.70
2023-09-06T13:18:24.433Z,2.83
2023-09-06T13:20:58.244Z,2.72
2023-09-06T13:23:25.052Z,2.78
2023-09-06T13:25:54.004Z,2.53
2023-09-06T13:28:22.952Z,3.10
2023-09-06T13:30:49.831Z,2.70
2023-09-06T13:33:16.831Z,2.58
2023-09-06T13:35:45.718Z,2.90
2023-09-06T13:38:17.340Z,2.42
2023-09-06T13:40:44.419Z,2.58
2023-09-06T13:43:11.864Z,2.65
2023-09-06T13:45:38.680Z,2.63
2023-09-06T13:48:05.696Z,2.90
2023-09-06T13:50:34.667Z,2.65
2023-09-06T13:53:01.413Z,2.60
2023-09-06T13:55:28.191Z,2.75
2023-09-06T13:57:54.989Z,2.67
2023-09-06T14:00:21.913Z,2.60
2023-09-06T14:02:51.243Z,2.28
2023-09-06T14:05:20.450Z,2.40
2023-09-06T14:07:47.258Z,2.78
2023-09-06T14:10:14.157Z,2.80
2023-09-06T14:12:43.403Z,2.67
2023-09-06T14:15:12.793Z,3.10
2023-09-06T14:17:39.564Z,2.92
2023-09-06T14:20:07.288Z,2.90
2023-09-06T14:22:34.160Z,3.00
2023-09-06T14:25:01.324Z,2.50
2023-09-06T14:27:30.247Z,3.33
2023-09-06T14:30:00.440Z,3.08
2023-09-06T14:32:27.264Z,2.65
2023-09-06T14:34:56.455Z,2.90
2023-09-06T14:37:23.506Z,3.00
2023-09-06T14:39:50.207Z,2.65
2023-09-06T14:42:16.936Z,2.58
2023-09-06T14:44:46.212Z,2.42
2023-09-06T14:47:13.301Z,2.50
2023-09-06T14:49:42.422Z,2.35
2023-09-06T14:52:11.672Z,2.63
2023-09-06T14:54:40.550Z,2.53
2023-09-06T14:57:07.807Z,2.60
2023-09-06T14:59:35.696Z,2.60
2023-09-06T15:02:02.548Z,2.47
2023-09-06T15:04:34.073Z,2.70
2023-09-06T15:07:00.836Z,2.60
2023-09-06T15:09:30.579Z,2.50
2023-09-06T15:11:57.672Z,2.50
2023-09-06T15:14:25.312Z,2.60
2023-09-06T15:16:52.037Z,2.78
2023-09-06T15:19:18.784Z,2.53
2023-09-06T15:21:45.515Z,2.25
2023-09-06T15:24:15.129Z,2.70
2023-09-06T15:26:46.377Z,2.72
2023-09-06T15:29:13.182Z,2.40
2023-09-06T15:31:39.858Z,2.47
2023-09-06T15:34:06.735Z,2.58
2023-09-06T15:36:36.037Z,2.38
2023-09-06T15:39:03.085Z,2.50
2023-09-06T15:41:33.333Z,3.08
2023-09-06T15:44:06.197Z,2.78
2023-09-06T15:46:35.938Z,2.30
2023-09-06T15:49:02.779Z,2.60
2023-09-06T15:51:32.404Z,2.30
2023-09-06T15:53:59.188Z,2.70
2023-09-06T15:56:25.889Z,2.50
2023-09-06T15:58:58.689Z,2.30
2023-09-06T16:01:30.336Z,2.53
2023-09-06T16:03:58.858Z,2.47
2023-09-06T16:06:27.017Z,2.42
2023-09-06T16:08:53.750Z,2.30
2023-09-06T16:11:20.538Z,2.63
2023-09-06T16:13:47.307Z,2.22
2023-09-06T16:16:14.521Z,2.72
2023-09-06T16:18:53.950Z,2.70
2023-09-06T16:21:23.256Z,2.50
2023-09-06T16:23:50.050Z,2.80
2023-09-06T16:26:17.073Z,2.50
2023-09-06T16:28:43.853Z,2.35
2023-09-06T16:31:10.635Z,2.80
2023-09-06T16:33:39.631Z,2.60
2023-09-06T16:36:07.370Z,2.70
2023-09-06T16:38:38.039Z,2.45
2023-09-06T16:41:07.035Z,2.70
2023-09-06T16:43:38.319Z,2.33
2023-09-06T16:46:08.142Z,2.42
2023-09-06T16:48:37.687Z,2.97
2023-09-06T16:51:09.146Z,3.30
2023-09-06T16:53:35.995Z,2.90
2023-09-06T16:56:05.298Z,2.97
2023-09-06T16:58:34.333Z,3.17
2023-09-06T17:01:01.492Z,2.90
2023-09-06T17:03:28.845Z,3.03
2023-09-06T17:05:58.114Z,3.30
2023-09-06T17:08:25.197Z,3.47
2023-09-06T17:10:52.008Z,3.72
2023-09-06T17:13:19.630Z,2.75
2023-09-06T17:15:46.552Z,3.13
2023-09-06T17:18:14.628Z,2.83
2023-09-06T17:20:41.381Z,2.63
2023-09-06T17:23:08.633Z,2.42
2023-09-06T17:25:35.836Z,3.17
2023-09-06T17:28:06.005Z,3.10
2023-09-06T17:30:32.802Z,3.28
2023-09-06T17:33:14.624Z,3.00
2023-09-06T17:35:49.435Z,2.88
2023-09-06T17:38:17.774Z,2.70
2023-09-06T17:40:53.166Z,2.60
2023-09-06T17:43:26.972Z,2.40
2023-09-06T17:45:54.557Z,2.90
2023-09-06T17:48:23.596Z,2.90
2023-09-06T17:50:57.384Z,3.00
2023-09-06T17:53:28.964Z,2.70
2023-09-06T17:56:16.358Z,2.67
2023-09-06T17:58:54.945Z,2.90
2023-09-06T18:01:24.661Z,3.67
2023-09-06T18:03:58.651Z,5.45
2023-09-06T18:06:27.133Z,7.60
2023-09-06T18:08:55.857Z,5.00
2023-09-06T18:11:23.075Z,4.22
2023-09-06T18:13:52.734Z,3.78
2023-09-06T18:16:20.056Z,3.60
2023-09-06T18:18:47.249Z,3.60
2023-09-06T18:21:14.870Z,3.92
2023-09-06T18:23:44.338Z,3.67
2023-09-06T18:26:14.214Z,4.15
2023-09-06T18:28:41.338Z,4.40
2023-09-06T18:31:09.337Z,4.50
2023-09-06T18:33:37.909Z,4.03
2023-09-06T18:36:10.031Z,4.13
2023-09-06T18:38:38.398Z,4.05
2023-09-06T18:41:10.653Z,4.78
2023-09-06T18:43:40.883Z,4.22
2023-09-06T18:46:10.045Z,4.28
2023-09-06T18:48:39.478Z,3.83
2023-09-06T18:51:10.377Z,3.75
2023-09-06T18:53:41.273Z,3.55
2023-09-06T18:56:11.605Z,3.35
2023-09-06T18:58:40.423Z,3.20
2023-09-06T19:01:13.581Z,3.35
2023-09-06T19:03:42.446Z,3.28
2023-09-06T19:06:11.893Z,3.17
2023-09-06T19:08:38.856Z,3.25
2023-09-06T19:11:11.240Z,3.65
2023-09-06T19:13:38.198Z,3.55
2023-09-06T19:16:07.519Z,3.53
2023-09-06T19:18:34.433Z,3.50
2023-09-06T19:21:03.806Z,3.15
2023-09-06T19:23:30.587Z,3.70
2023-09-06T19:25:57.357Z,3.47
2023-09-06T19:28:25.345Z,3.78
2023-09-06T19:30:58.990Z,3.60
2023-09-06T19:33:27.415Z,3.78
2023-09-06T19:35:55.679Z,4.03
2023-09-06T19:38:23.578Z,4.30
2023-09-06T19:40:55.087Z,3.90
2023-09-06T19:43:23.109Z,3.75
2023-09-06T19:45:57.126Z,3.85
2023-09-06T19:48:24.926Z,3.70
2023-09-06T19:50:54.306Z,5.32
2023-09-06T19:53:21.207Z,4.53
2023-09-06T19:55:49.343Z,4.15
2023-09-06T19:58:19.593Z,4.10
2023-09-06T20:00:46.870Z,4.10
2023-09-06T20:03:15.469Z,3.83
2023-09-06T20:05:42.668Z,3.63
2023-09-06T20:08:09.451Z,3.88
2023-09-06T20:10:46.192Z,4.43
2023-09-06T20:13:12.983Z,4.00
2023-09-06T20:15:39.964Z,3.75
2023-09-06T20:18:08.396Z,3.42
2023-09-06T20:20:39.987Z,3.83
2023-09-06T20:23:09.745Z,3.58
2023-09-06T20:25:36.500Z,3.50
2023-09-06T20:28:03.614Z,3.20
2023-09-06T20:30:30.704Z,2.97
2023-09-06T20:32:57.699Z,3.40
2023-09-06T20:35:25.111Z,3.58
2023-09-06T20:37:52.337Z,3.53
2023-09-06T20:40:21.574Z,3.38
2023-09-06T20:42:50.594Z,3.53
2023-09-06T20:45:17.456Z,3.63
2023-09-06T20:47:44.545Z,3.95
2023-09-06T20:50:19.350Z,4.35
2023-09-06T20:52:46.654Z,4.00
2023-09-06T20:55:18.393Z,3.88
2023-09-06T20:57:49.746Z,3.90
2023-09-06T21:00:16.593Z,3.90
2023-09-06T21:02:46.753Z,3.58
2023-09-06T21:05:13.866Z,3.70
2023-09-06T21:07:42.744Z,4.32
2023-09-06T21:10:09.933Z,4.18
2023-09-06T21:12:39.104Z,4.88
2023-09-06T21:15:06.661Z,5.00
2023-09-06T21:17:36.261Z,4.47
2023-09-06T21:20:04.325Z,4.80
2023-09-06T21:22:31.163Z,5.53
2023-09-06T21:24:57.859Z,5.22
2023-09-06T21:27:25.916Z,4.85
2023-09-06T21:29:53.580Z,5.47
2023-09-06T21:32:22.859Z,4.85
2023-09-06T21:34:53.643Z,4.97
2023-09-06T21:37:20.379Z,5.57
2023-09-06T21:39:49.624Z,5.47
2023-09-06T21:42:20.817Z,5.40
2023-09-06T21:44:47.547Z,5.28
2023-09-06T21:47:14.356Z,5.75
2023-09-06T21:49:41.096Z,5.30
2023-09-06T21:52:07.836Z,5.10
2023-09-06T21:54:34.718Z,5.13
2023-09-06T21:57:01.586Z,5.38
2023-09-06T21:59:28.318Z,5.15
2023-09-06T22:01:55.047Z,5.43
2023-09-06T22:04:24.013Z,5.63
2023-09-06T22:06:51.015Z,5.10
2023-09-06T22:09:17.743Z,5.18
2023-09-06T22:11:44.650Z,5.30
2023-09-06T22:14:16.537Z,4.63
2023-09-06T22:16:46.482Z,4.70
2023-09-06T22:19:15.433Z,5.00
2023-09-06T22:21:42.650Z,4.70
2023-09-06T22:24:11.566Z,4.85
2023-09-06T22:26:38.304Z,4.88
2023-09-06T22:29:07.463Z,5.30
2023-09-06T22:31:35.971Z,5.18
2023-09-06T22:34:09.547Z,4.85
2023-09-06T22:36:36.294Z,5.07
2023-09-06T22:39:06.098Z,5.18
2023-09-06T22:41:33.359Z,5.03
2023-09-06T22:44:02.260Z,5.00
2023-09-06T22:46:29.051Z,4.95
2023-09-06T22:48:58.328Z,5.20
2023-09-06T22:51:25.381Z,4.68
2023-09-06T22:53:57.589Z,4.95
2023-09-06T22:56:29.109Z,4.97
2023-09-06T22:58:58.262Z,4.93
2023-09-06T23:01:25.185Z,4.55
2023-09-06T23:03:51.962Z,4.70
2023-09-06T23:06:21.204Z,4.70
2023-09-06T23:08:50.297Z,5.60
2023-09-06T23:11:22.193Z,8.27
2023-09-06T23:13:51.098Z,6.93
2023-09-06T23:16:18.102Z,5.53
2023-09-06T23:18:49.183Z,4.70
2023-09-06T23:21:21.315Z,4.60
2023-09-06T23:23:49.533Z,4.80
2023-09-06T23:26:28.221Z,4.47
2023-09-06T23:28:57.162Z,4.50
2023-09-06T23:31:26.930Z,4.53
2023-09-06T23:33:58.548Z,4.90
2023-09-06T23:36:29.743Z,4.30
2023-09-06T23:38:58.626Z,5.00
2023-09-06T23:41:28.801Z,4.85
2023-09-06T23:43:57.342Z,4.55
2023-09-06T23:46:27.586Z,4.70
2023-09-06T23:48:59.310Z,4.85
2023-09-06T23:51:29.014Z,4.47
2023-09-06T23:53:57.872Z,4.68
2023-09-06T23:56:29.251Z,4.50
2023-09-06T23:58:55.983Z,4.85
